sensor_id;sensor_type;location;lat;lon;timestamp;temperature;humidity
66271;DHT22;53063;39.614;8.814;2023-02-24T00:01:37;10.90;99.90
66271;DHT22;53063;39.614;8.814;2023-02-24T00:04:08;11.00;99.90
66271;DHT22;53063;39.614;8.814;2023-02-24T00:06:37;10.90;99.90
66271;DHT22;53063;39.614;8.814;2023-02-24T00:09:11;10.90;99.90
66271;DHT22;53063;39.614;8.814;2023-02-24T00:11:39;10.90;99.90
66271;DHT22;53063;39.614;8.814;2023-02-24T00:14:07;10.90;99.90
66271;DHT22;53063;39.614;8.814;2023-02-24T00:16:34;10.90;99.90
66271;DHT22;53063;39.614;8.814;2023-02-24T00:19:04;10.90;99.90
66271;DHT22;53063;39.614;8.814;2023-02-24T00:21:32;10.80;99.90
66271;DHT22;53063;39.614;8.814;2023-02-24T00:23:58;10.80;99.90
66271;DHT22;53063;39.614;8.814;2023-02-24T00:26:25;10.70;99.90
66271;DHT22;53063;39.614;8.814;2023-02-24T00:28:51;10.60;99.90
66271;DHT22;53063;39.614;8.814;2023-02-24T00:31:18;10.60;99.90
66271;DHT22;53063;39.614;8.814;2023-02-24T00:33:46;10.50;99.90
66271;DHT22;53063;39.614;8.814;2023-02-24T00:36:18;10.50;99.90
66271;DHT22;53063;39.614;8.814;2023-02-24T00:38:54;10.50;99.90
66271;DHT22;53063;39.614;8.814;2023-02-24T00:41:23;10.40;99.90
66271;DHT22;53063;39.614;8.814;2023-02-24T00:43:50;10.40;99.90
66271;DHT22;53063;39.614;8.814;2023-02-24T00:46:18;10.30;99.90
66271;DHT22;53063;39.614;8.814;2023-02-24T00:48:47;10.30;99.90
66271;DHT22;53063;39.614;8.814;2023-02-24T00:51:15;10.30;99.90
66271;DHT22;53063;39.614;8.814;2023-02-24T00:53:43;10.30;99.90
66271;DHT22;53063;39.614;8.814;2023-02-24T00:56:11;10.20;99.90
66271;DHT22;53063;39.614;8.814;2023-02-24T00:58:39;10.20;99.90
66271;DHT22;53063;39.614;8.814;2023-02-24T01:01:14;10.20;99.90
66271;DHT22;53063;39.614;8.814;2023-02-24T01:03:42;10.10;99.90
66271;DHT22;53063;39.614;8.814;2023-02-24T01:06:10;10.10;99.90
66271;DHT22;53063;39.614;8.814;2023-02-24T01:08:40;10.00;99.90
66271;DHT22;53063;39.614;8.814;2023-02-24T01:11:13;10.00;99.90
66271;DHT22;53063;39.614;8.814;2023-02-24T01:13:58;10.00;99.90
66271;DHT22;53063;39.614;8.814;2023-02-24T01:16:24;10.10;99.90
66271;DHT22;53063;39.614;8.814;2023-02-24T01:18:51;10.30;99.90
66271;DHT22;53063;39.614;8.814;2023-02-24T01:21:18;10.50;99.90
66271;DHT22;53063;39.614;8.814;2023-02-24T01:23:49;10.70;99.90
66271;DHT22;53063;39.614;8.814;2023-02-24T01:26:16;10.80;99.90
66271;DHT22;53063;39.614;8.814;2023-02-24T01:28:43;10.80;99.90
66271;DHT22;53063;39.614;8.814;2023-02-24T01:31:15;10.80;99.90
66271;DHT22;53063;39.614;8.814;2023-02-24T01:33:49;10.80;99.90
66271;DHT22;53063;39.614;8.814;2023-02-24T01:36:18;10.80;99.90
66271;DHT22;53063;39.614;8.814;2023-02-24T01:38:45;10.80;99.90
66271;DHT22;53063;39.614;8.814;2023-02-24T01:41:15;10.70;99.90
66271;DHT22;53063;39.614;8.814;2023-02-24T01:46:26;10.70;99.90
66271;DHT22;53063;39.614;8.814;2023-02-24T01:48:56;10.70;99.90
66271;DHT22;53063;39.614;8.814;2023-02-24T01:51:28;10.70;99.90
66271;DHT22;53063;39.614;8.814;2023-02-24T01:53:55;10.60;99.90
66271;DHT22;53063;39.614;8.814;2023-02-24T01:56:20;10.60;99.90
66271;DHT22;53063;39.614;8.814;2023-02-24T01:58:46;10.60;99.90
66271;DHT22;53063;39.614;8.814;2023-02-24T02:01:16;10.70;99.90
66271;DHT22;53063;39.614;8.814;2023-02-24T02:03:44;10.70;99.90
66271;DHT22;53063;39.614;8.814;2023-02-24T02:06:12;10.70;99.90
66271;DHT22;53063;39.614;8.814;2023-02-24T02:08:40;10.70;99.90
66271;DHT22;53063;39.614;8.814;2023-02-24T02:11:14;10.70;99.90
66271;DHT22;53063;39.614;8.814;2023-02-24T02:13:47;10.70;99.90
66271;DHT22;53063;39.614;8.814;2023-02-24T02:39:02;10.60;99.90
66271;DHT22;53063;39.614;8.814;2023-02-24T02:41:32;10.60;99.90
66271;DHT22;53063;39.614;8.814;2023-02-24T02:44:08;10.60;99.90
66271;DHT22;53063;39.614;8.814;2023-02-24T02:46:49;10.50;99.90
66271;DHT22;53063;39.614;8.814;2023-02-24T02:52:40;10.50;99.90
66271;DHT22;53063;39.614;8.814;2023-02-24T02:55:16;10.50;99.90
66271;DHT22;53063;39.614;8.814;2023-02-24T02:57:47;10.40;99.90
66271;DHT22;53063;39.614;8.814;2023-02-24T03:00:31;10.40;99.90
66271;DHT22;53063;39.614;8.814;2023-02-24T03:03:13;10.40;99.90
66271;DHT22;53063;39.614;8.814;2023-02-24T03:05:51;10.30;99.90
66271;DHT22;53063;39.614;8.814;2023-02-24T03:08:24;10.30;99.90
66271;DHT22;53063;39.614;8.814;2023-02-24T03:10:53;10.30;99.90
66271;DHT22;53063;39.614;8.814;2023-02-24T03:13:23;10.30;99.90
66271;DHT22;53063;39.614;8.814;2023-02-24T03:15:52;10.30;99.90
66271;DHT22;53063;39.614;8.814;2023-02-24T03:18:25;10.30;99.90
66271;DHT22;53063;39.614;8.814;2023-02-24T03:21:05;10.30;99.90
66271;DHT22;53063;39.614;8.814;2023-02-24T03:23:45;10.30;99.90
66271;DHT22;53063;39.614;8.814;2023-02-24T03:32:20;10.40;99.90
66271;DHT22;53063;39.614;8.814;2023-02-24T03:35:14;10.30;99.90
66271;DHT22;53063;39.614;8.814;2023-02-24T03:37:43;10.40;99.90
66271;DHT22;53063;39.614;8.814;2023-02-24T03:40:13;10.40;99.90
66271;DHT22;53063;39.614;8.814;2023-02-24T03:42:44;10.30;99.90
66271;DHT22;53063;39.614;8.814;2023-02-24T03:45:11;10.40;99.90
66271;DHT22;53063;39.614;8.814;2023-02-24T03:47:39;10.40;99.90
66271;DHT22;53063;39.614;8.814;2023-02-24T03:50:18;10.40;99.90
66271;DHT22;53063;39.614;8.814;2023-02-24T04:12:41;10.80;99.90
66271;DHT22;53063;39.614;8.814;2023-02-24T04:15:21;10.80;99.90
66271;DHT22;53063;39.614;8.814;2023-02-24T04:17:53;10.90;99.90
66271;DHT22;53063;39.614;8.814;2023-02-24T04:20:22;10.90;99.90
66271;DHT22;53063;39.614;8.814;2023-02-24T04:23:07;11.00;99.90
66271;DHT22;53063;39.614;8.814;2023-02-24T04:25:34;11.00;99.90
66271;DHT22;53063;39.614;8.814;2023-02-24T04:28:02;11.00;99.90
66271;DHT22;53063;39.614;8.814;2023-02-24T04:30:33;11.00;99.90
66271;DHT22;53063;39.614;8.814;2023-02-24T04:33:01;11.00;99.90
66271;DHT22;53063;39.614;8.814;2023-02-24T04:35:27;11.00;99.90
66271;DHT22;53063;39.614;8.814;2023-02-24T04:37:54;11.00;99.90
66271;DHT22;53063;39.614;8.814;2023-02-24T04:40:22;11.00;99.90
66271;DHT22;53063;39.614;8.814;2023-02-24T04:42:49;11.00;99.90
66271;DHT22;53063;39.614;8.814;2023-02-24T04:47:45;11.00;99.90
66271;DHT22;53063;39.614;8.814;2023-02-24T04:50:14;10.90;99.90
66271;DHT22;53063;39.614;8.814;2023-02-24T04:52:51;10.90;99.90
66271;DHT22;53063;39.614;8.814;2023-02-24T04:55:19;10.90;99.90
66271;DHT22;53063;39.614;8.814;2023-02-24T04:57:56;10.90;99.90
66271;DHT22;53063;39.614;8.814;2023-02-24T05:00:22;11.00;99.90
66271;DHT22;53063;39.614;8.814;2023-02-24T05:02:55;11.00;99.90
66271;DHT22;53063;39.614;8.814;2023-02-24T05:05:23;10.90;99.90
66271;DHT22;53063;39.614;8.814;2023-02-24T05:08:02;10.90;99.90
66271;DHT22;53063;39.614;8.814;2023-02-24T05:10:55;11.00;99.90
66271;DHT22;53063;39.614;8.814;2023-02-24T05:13:31;11.00;99.90
66271;DHT22;53063;39.614;8.814;2023-02-24T05:15:59;11.00;99.90
66271;DHT22;53063;39.614;8.814;2023-02-24T05:18:27;10.90;99.90
66271;DHT22;53063;39.614;8.814;2023-02-24T05:21:07;10.80;99.90
66271;DHT22;53063;39.614;8.814;2023-02-24T05:23:52;10.80;99.90
66271;DHT22;53063;39.614;8.814;2023-02-24T05:26:21;10.80;99.90
66271;DHT22;53063;39.614;8.814;2023-02-24T05:28:52;10.80;99.90
66271;DHT22;53063;39.614;8.814;2023-02-24T05:31:26;10.90;99.90
66271;DHT22;53063;39.614;8.814;2023-02-24T05:33:55;10.80;99.90
66271;DHT22;53063;39.614;8.814;2023-02-24T05:36:27;10.80;99.90
66271;DHT22;53063;39.614;8.814;2023-02-24T05:38:55;10.80;99.90
66271;DHT22;53063;39.614;8.814;2023-02-24T05:41:29;10.80;99.90
66271;DHT22;53063;39.614;8.814;2023-02-24T05:44:02;10.80;99.90
66271;DHT22;53063;39.614;8.814;2023-02-24T05:46:31;10.80;99.90
66271;DHT22;53063;39.614;8.814;2023-02-24T05:49:00;10.70;99.90
66271;DHT22;53063;39.614;8.814;2023-02-24T05:51:31;10.70;99.90
66271;DHT22;53063;39.614;8.814;2023-02-24T05:54:09;10.60;99.90
66271;DHT22;53063;39.614;8.814;2023-02-24T05:56:38;10.60;99.90
66271;DHT22;53063;39.614;8.814;2023-02-24T05:59:06;10.60;99.90
66271;DHT22;53063;39.614;8.814;2023-02-24T06:01:37;10.60;99.90
66271;DHT22;53063;39.614;8.814;2023-02-24T06:04:07;10.70;99.90
66271;DHT22;53063;39.614;8.814;2023-02-24T06:06:39;10.70;99.90
66271;DHT22;53063;39.614;8.814;2023-02-24T06:09:10;10.70;99.90
66271;DHT22;53063;39.614;8.814;2023-02-24T06:11:38;10.80;99.90
66271;DHT22;53063;39.614;8.814;2023-02-24T06:14:05;10.80;99.90
66271;DHT22;53063;39.614;8.814;2023-02-24T06:16:39;10.90;99.90
66271;DHT22;53063;39.614;8.814;2023-02-24T06:19:06;11.00;99.90
66271;DHT22;53063;39.614;8.814;2023-02-24T06:21:37;11.00;99.90
66271;DHT22;53063;39.614;8.814;2023-02-24T06:24:10;11.00;99.90
66271;DHT22;53063;39.614;8.814;2023-02-24T06:26:40;11.10;99.90
66271;DHT22;53063;39.614;8.814;2023-02-24T06:29:15;11.10;99.90
66271;DHT22;53063;39.614;8.814;2023-02-24T06:31:42;11.20;99.90
66271;DHT22;53063;39.614;8.814;2023-02-24T06:34:12;11.20;99.90
66271;DHT22;53063;39.614;8.814;2023-02-24T06:36:42;11.10;99.90
66271;DHT22;53063;39.614;8.814;2023-02-24T06:39:08;11.10;99.90
66271;DHT22;53063;39.614;8.814;2023-02-24T06:41:38;11.00;99.90
66271;DHT22;53063;39.614;8.814;2023-02-24T06:44:04;11.00;99.90
66271;DHT22;53063;39.614;8.814;2023-02-24T06:46:30;11.10;99.90
66271;DHT22;53063;39.614;8.814;2023-02-24T06:48:55;11.10;99.90
66271;DHT22;53063;39.614;8.814;2023-02-24T06:51:22;11.20;99.90
66271;DHT22;53063;39.614;8.814;2023-02-24T06:53:50;11.10;99.90
66271;DHT22;53063;39.614;8.814;2023-02-24T06:56:17;11.00;99.90
66271;DHT22;53063;39.614;8.814;2023-02-24T06:58:51;11.10;99.90
66271;DHT22;53063;39.614;8.814;2023-02-24T07:01:23;11.10;99.90
66271;DHT22;53063;39.614;8.814;2023-02-24T07:03:52;11.20;99.90
66271;DHT22;53063;39.614;8.814;2023-02-24T07:06:28;11.30;99.90
66271;DHT22;53063;39.614;8.814;2023-02-24T07:08:57;11.30;99.90
66271;DHT22;53063;39.614;8.814;2023-02-24T07:11:24;11.40;99.90
66271;DHT22;53063;39.614;8.814;2023-02-24T07:13:50;11.50;99.90
66271;DHT22;53063;39.614;8.814;2023-02-24T07:16:20;11.40;99.90
66271;DHT22;53063;39.614;8.814;2023-02-24T07:18:53;11.50;99.90
66271;DHT22;53063;39.614;8.814;2023-02-24T07:21:22;11.50;99.90
66271;DHT22;53063;39.614;8.814;2023-02-24T07:23:49;11.50;99.90
66271;DHT22;53063;39.614;8.814;2023-02-24T07:26:22;11.50;99.90
66271;DHT22;53063;39.614;8.814;2023-02-24T07:28:50;11.60;99.90
66271;DHT22;53063;39.614;8.814;2023-02-24T07:31:18;11.70;99.90
66271;DHT22;53063;39.614;8.814;2023-02-24T07:33:45;11.80;99.90
66271;DHT22;53063;39.614;8.814;2023-02-24T07:36:14;11.80;99.90
66271;DHT22;53063;39.614;8.814;2023-02-24T07:38:41;11.80;99.90
66271;DHT22;53063;39.614;8.814;2023-02-24T07:41:08;11.90;99.90
66271;DHT22;53063;39.614;8.814;2023-02-24T07:43:40;12.00;99.90
66271;DHT22;53063;39.614;8.814;2023-02-24T07:46:12;12.10;99.90
66271;DHT22;53063;39.614;8.814;2023-02-24T07:48:39;12.20;99.90
66271;DHT22;53063;39.614;8.814;2023-02-24T07:51:12;12.20;99.90
66271;DHT22;53063;39.614;8.814;2023-02-24T07:53:39;12.20;99.90
66271;DHT22;53063;39.614;8.814;2023-02-24T07:56:10;12.20;99.90
66271;DHT22;53063;39.614;8.814;2023-02-24T07:58:43;12.30;99.90
66271;DHT22;53063;39.614;8.814;2023-02-24T08:01:10;12.30;99.90
66271;DHT22;53063;39.614;8.814;2023-02-24T08:04:07;12.50;99.90
66271;DHT22;53063;39.614;8.814;2023-02-24T08:06:34;12.70;99.90
66271;DHT22;53063;39.614;8.814;2023-02-24T08:09:15;12.80;99.90
66271;DHT22;53063;39.614;8.814;2023-02-24T08:11:44;12.90;99.90
66271;DHT22;53063;39.614;8.814;2023-02-24T08:14:27;13.00;99.90
66271;DHT22;53063;39.614;8.814;2023-02-24T08:17:02;13.00;99.90
66271;DHT22;53063;39.614;8.814;2023-02-24T08:19:32;13.80;99.90
66271;DHT22;53063;39.614;8.814;2023-02-24T08:22:06;13.50;97.90
66271;DHT22;53063;39.614;8.814;2023-02-24T08:24:41;13.30;99.90
66271;DHT22;53063;39.614;8.814;2023-02-24T08:27:08;13.30;99.90
66271;DHT22;53063;39.614;8.814;2023-02-24T08:29:36;13.50;99.90
66271;DHT22;53063;39.614;8.814;2023-02-24T08:32:09;14.40;98.80
66271;DHT22;53063;39.614;8.814;2023-02-24T08:34:36;16.90;84.40
66271;DHT22;53063;39.614;8.814;2023-02-24T08:37:02;15.70;85.80
66271;DHT22;53063;39.614;8.814;2023-02-24T08:39:28;15.00;89.10
66271;DHT22;53063;39.614;8.814;2023-02-24T08:41:57;14.50;92.20
66271;DHT22;53063;39.614;8.814;2023-02-24T08:44:23;15.30;91.50
66271;DHT22;53063;39.614;8.814;2023-02-24T08:46:53;16.90;85.40
66271;DHT22;53063;39.614;8.814;2023-02-24T08:49:20;16.10;84.70
66271;DHT22;53063;39.614;8.814;2023-02-24T08:51:50;15.20;88.90
66271;DHT22;53063;39.614;8.814;2023-02-24T08:54:21;14.80;91.80
66271;DHT22;53063;39.614;8.814;2023-02-24T08:56:54;14.50;93.90
66271;DHT22;53063;39.614;8.814;2023-02-24T08:59:34;15.00;93.10
66271;DHT22;53063;39.614;8.814;2023-02-24T09:02:25;14.90;93.50
66271;DHT22;53063;39.614;8.814;2023-02-24T09:07:28;14.90;92.20
66271;DHT22;53063;39.614;8.814;2023-02-24T09:09:55;14.90;93.60
66271;DHT22;53063;39.614;8.814;2023-02-24T09:12:23;15.10;90.90
66271;DHT22;53063;39.614;8.814;2023-02-24T09:14:58;15.20;91.00
66271;DHT22;53063;39.614;8.814;2023-02-24T09:17:28;15.60;90.90
66271;DHT22;53063;39.614;8.814;2023-02-24T09:20:26;19.20;76.70
66271;DHT22;53063;39.614;8.814;2023-02-24T09:22:53;20.40;68.00
66271;DHT22;53063;39.614;8.814;2023-02-24T09:25:29;20.40;66.10
66271;DHT22;53063;39.614;8.814;2023-02-24T09:28:22;21.20;65.00
66271;DHT22;53063;39.614;8.814;2023-02-24T09:30:57;20.20;67.80
66271;DHT22;53063;39.614;8.814;2023-02-24T09:33:30;20.10;67.60
66271;DHT22;53063;39.614;8.814;2023-02-24T09:36:09;20.20;68.80
66271;DHT22;53063;39.614;8.814;2023-02-24T09:38:50;21.10;65.10
66271;DHT22;53063;39.614;8.814;2023-02-24T09:44:13;21.10;63.50
66271;DHT22;53063;39.614;8.814;2023-02-24T09:46:50;20.50;65.90
66271;DHT22;53063;39.614;8.814;2023-02-24T09:49:26;21.20;64.20
66271;DHT22;53063;39.614;8.814;2023-02-24T09:52:10;20.40;66.70
66271;DHT22;53063;39.614;8.814;2023-02-24T09:54:46;19.20;72.10
66271;DHT22;53063;39.614;8.814;2023-02-24T09:57:36;18.30;77.00
66271;DHT22;53063;39.614;8.814;2023-02-24T10:00:20;18.20;78.90
66271;DHT22;53063;39.614;8.814;2023-02-24T10:03:16;18.50;77.60
66271;DHT22;53063;39.614;8.814;2023-02-24T10:06:22;18.90;76.70
66271;DHT22;53063;39.614;8.814;2023-02-24T10:08:57;19.10;72.50
66271;DHT22;53063;39.614;8.814;2023-02-24T10:11:25;18.80;74.00
66271;DHT22;53063;39.614;8.814;2023-02-24T10:14:05;19.10;74.00
66271;DHT22;53063;39.614;8.814;2023-02-24T10:16:39;19.00;75.70
66271;DHT22;53063;39.614;8.814;2023-02-24T10:19:17;19.30;73.00
66271;DHT22;53063;39.614;8.814;2023-02-24T10:27:39;19.00;73.10
66271;DHT22;53063;39.614;8.814;2023-02-24T10:33:30;19.30;72.60
66271;DHT22;53063;39.614;8.814;2023-02-24T10:36:10;19.40;74.00
66271;DHT22;53063;39.614;8.814;2023-02-24T10:38:38;19.70;71.30
66271;DHT22;53063;39.614;8.814;2023-02-24T10:41:10;19.90;70.70
66271;DHT22;53063;39.614;8.814;2023-02-24T10:43:37;19.50;73.10
66271;DHT22;53063;39.614;8.814;2023-02-24T10:48:56;19.60;72.70
66271;DHT22;53063;39.614;8.814;2023-02-24T10:51:31;19.80;72.20
66271;DHT22;53063;39.614;8.814;2023-02-24T10:54:24;19.80;72.30
66271;DHT22;53063;39.614;8.814;2023-02-24T10:57:03;19.60;73.90
66271;DHT22;53063;39.614;8.814;2023-02-24T10:59:52;19.50;70.50
66271;DHT22;53063;39.614;8.814;2023-02-24T11:02:35;19.80;65.60
66271;DHT22;53063;39.614;8.814;2023-02-24T11:05:22;19.40;65.50
66271;DHT22;53063;39.614;8.814;2023-02-24T11:08:21;19.40;67.30
66271;DHT22;53063;39.614;8.814;2023-02-24T11:14:01;20.10;65.70
66271;DHT22;53063;39.614;8.814;2023-02-24T11:16:53;20.00;65.90
66271;DHT22;53063;39.614;8.814;2023-02-24T11:22:09;20.20;63.30
66271;DHT22;53063;39.614;8.814;2023-02-24T11:24:37;20.50;61.90
66271;DHT22;53063;39.614;8.814;2023-02-24T11:27:04;20.30;64.60
66271;DHT22;53063;39.614;8.814;2023-02-24T11:37:47;20.10;64.30
66271;DHT22;53063;39.614;8.814;2023-02-24T11:40:20;20.20;64.60
66271;DHT22;53063;39.614;8.814;2023-02-24T11:43:02;19.60;65.10
66271;DHT22;53063;39.614;8.814;2023-02-24T11:45:39;19.40;67.90
66271;DHT22;53063;39.614;8.814;2023-02-24T11:48:12;19.50;68.60
66271;DHT22;53063;39.614;8.814;2023-02-24T11:50:57;20.10;67.40
66271;DHT22;53063;39.614;8.814;2023-02-24T11:58:47;21.00;64.00
66271;DHT22;53063;39.614;8.814;2023-02-24T12:01:35;21.10;63.50
66271;DHT22;53063;39.614;8.814;2023-02-24T12:07:07;20.10;65.60
66271;DHT22;53063;39.614;8.814;2023-02-24T12:09:48;20.40;64.50
66271;DHT22;53063;39.614;8.814;2023-02-24T12:12:21;20.40;63.90
66271;DHT22;53063;39.614;8.814;2023-02-24T12:14:59;20.40;64.70
66271;DHT22;53063;39.614;8.814;2023-02-24T12:17:35;20.50;64.50
66271;DHT22;53063;39.614;8.814;2023-02-24T12:20:20;20.90;64.80
66271;DHT22;53063;39.614;8.814;2023-02-24T12:23:16;21.30;61.30
66271;DHT22;53063;39.614;8.814;2023-02-24T12:25:57;21.00;62.30
66271;DHT22;53063;39.614;8.814;2023-02-24T12:47:23;21.40;61.00
66271;DHT22;53063;39.614;8.814;2023-02-24T12:58:15;21.30;61.60
66271;DHT22;53063;39.614;8.814;2023-02-24T13:01:04;21.30;61.50
66271;DHT22;53063;39.614;8.814;2023-02-24T13:14:43;20.10;64.10
66271;DHT22;53063;39.614;8.814;2023-02-24T13:19:37;20.00;62.10
66271;DHT22;53063;39.614;8.814;2023-02-24T13:22:20;19.70;61.80
66271;DHT22;53063;39.614;8.814;2023-02-24T13:27:34;20.40;58.30
66271;DHT22;53063;39.614;8.814;2023-02-24T13:33:22;20.20;59.60
66271;DHT22;53063;39.614;8.814;2023-02-24T13:36:06;20.10;58.10
66271;DHT22;53063;39.614;8.814;2023-02-24T13:44:23;20.00;59.40
66271;DHT22;53063;39.614;8.814;2023-02-24T13:47:04;20.00;60.70
66271;DHT22;53063;39.614;8.814;2023-02-24T14:01:12;19.70;59.40
66271;DHT22;53063;39.614;8.814;2023-02-24T14:03:43;19.80;59.50
66271;DHT22;53063;39.614;8.814;2023-02-24T14:06:17;19.50;60.30
66271;DHT22;53063;39.614;8.814;2023-02-24T14:08:51;19.70;60.90
66271;DHT22;53063;39.614;8.814;2023-02-24T14:11:23;19.70;60.70
66271;DHT22;53063;39.614;8.814;2023-02-24T14:13:53;19.70;60.90
66271;DHT22;53063;39.614;8.814;2023-02-24T14:16:22;19.50;61.60
66271;DHT22;53063;39.614;8.814;2023-02-24T14:18:58;19.50;61.20
66271;DHT22;53063;39.614;8.814;2023-02-24T14:21:28;19.50;61.10
66271;DHT22;53063;39.614;8.814;2023-02-24T14:24:00;19.50;61.00
66271;DHT22;53063;39.614;8.814;2023-02-24T14:26:31;19.70;60.90
66271;DHT22;53063;39.614;8.814;2023-02-24T14:28:59;19.60;60.70
66271;DHT22;53063;39.614;8.814;2023-02-24T14:31:27;19.50;60.40
66271;DHT22;53063;39.614;8.814;2023-02-24T14:34:16;19.50;60.60
66271;DHT22;53063;39.614;8.814;2023-02-24T14:36:44;19.40;61.10
66271;DHT22;53063;39.614;8.814;2023-02-24T14:39:26;19.40;60.30
66271;DHT22;53063;39.614;8.814;2023-02-24T14:42:11;19.50;60.40
66271;DHT22;53063;39.614;8.814;2023-02-24T14:44:55;19.40;60.00
66271;DHT22;53063;39.614;8.814;2023-02-24T14:47:24;19.50;59.90
66271;DHT22;53063;39.614;8.814;2023-02-24T14:49:59;19.20;60.20
66271;DHT22;53063;39.614;8.814;2023-02-24T14:52:58;19.30;59.30
66271;DHT22;53063;39.614;8.814;2023-02-24T14:55:39;19.30;59.20
66271;DHT22;53063;39.614;8.814;2023-02-24T15:03:29;19.40;61.60
66271;DHT22;53063;39.614;8.814;2023-02-24T15:06:05;19.30;61.80
66271;DHT22;53063;39.614;8.814;2023-02-24T15:08:40;19.30;62.70
66271;DHT22;53063;39.614;8.814;2023-02-24T15:11:20;18.90;63.50
66271;DHT22;53063;39.614;8.814;2023-02-24T15:13:53;18.80;64.40
66271;DHT22;53063;39.614;8.814;2023-02-24T15:16:38;18.60;65.40
66271;DHT22;53063;39.614;8.814;2023-02-24T15:19:34;18.70;65.70
66271;DHT22;53063;39.614;8.814;2023-02-24T15:22:30;18.60;64.80
66271;DHT22;53063;39.614;8.814;2023-02-24T15:25:23;18.50;64.40
66271;DHT22;53063;39.614;8.814;2023-02-24T15:27:53;18.50;64.80
66271;DHT22;53063;39.614;8.814;2023-02-24T15:30:53;18.70;64.60
66271;DHT22;53063;39.614;8.814;2023-02-24T15:33:23;18.80;64.30
66271;DHT22;53063;39.614;8.814;2023-02-24T15:35:53;18.70;65.00
66271;DHT22;53063;39.614;8.814;2023-02-24T15:38:41;18.50;65.70
66271;DHT22;53063;39.614;8.814;2023-02-24T15:41:11;18.70;66.00
66271;DHT22;53063;39.614;8.814;2023-02-24T15:43:52;18.50;65.80
66271;DHT22;53063;39.614;8.814;2023-02-24T15:46:27;18.40;66.20
66271;DHT22;53063;39.614;8.814;2023-02-24T15:48:53;18.20;67.50
66271;DHT22;53063;39.614;8.814;2023-02-24T15:51:41;18.20;67.90
66271;DHT22;53063;39.614;8.814;2023-02-24T15:54:31;18.00;68.40
66271;DHT22;53063;39.614;8.814;2023-02-24T15:57:00;18.00;69.60
66271;DHT22;53063;39.614;8.814;2023-02-24T15:59:27;17.90;69.10
66271;DHT22;53063;39.614;8.814;2023-02-24T16:01:53;17.80;69.30
66271;DHT22;53063;39.614;8.814;2023-02-24T16:04:20;17.80;69.30
66271;DHT22;53063;39.614;8.814;2023-02-24T16:06:50;17.70;69.40
66271;DHT22;53063;39.614;8.814;2023-02-24T16:09:45;17.60;69.40
66271;DHT22;53063;39.614;8.814;2023-02-24T16:12:16;17.60;68.90
66271;DHT22;53063;39.614;8.814;2023-02-24T16:14:45;17.40;68.60
66271;DHT22;53063;39.614;8.814;2023-02-24T16:19:59;17.30;69.40
66271;DHT22;53063;39.614;8.814;2023-02-24T16:22:26;17.20;70.10
66271;DHT22;53063;39.614;8.814;2023-02-24T16:24:51;17.10;71.00
66271;DHT22;53063;39.614;8.814;2023-02-24T16:27:20;17.00;71.70
66271;DHT22;53063;39.614;8.814;2023-02-24T16:29:47;17.00;72.50
66271;DHT22;53063;39.614;8.814;2023-02-24T16:32:15;16.80;73.70
66271;DHT22;53063;39.614;8.814;2023-02-24T16:34:40;16.80;74.40
66271;DHT22;53063;39.614;8.814;2023-02-24T16:37:25;16.70;75.30
66271;DHT22;53063;39.614;8.814;2023-02-24T16:39:51;16.70;76.10
66271;DHT22;53063;39.614;8.814;2023-02-24T16:42:18;16.60;76.70
66271;DHT22;53063;39.614;8.814;2023-02-24T16:44:46;16.70;77.20
66271;DHT22;53063;39.614;8.814;2023-02-24T16:47:16;16.60;77.50
66271;DHT22;53063;39.614;8.814;2023-02-24T16:49:43;16.50;78.70
66271;DHT22;53063;39.614;8.814;2023-02-24T16:52:14;16.50;79.00
66271;DHT22;53063;39.614;8.814;2023-02-24T16:54:44;16.30;80.30
66271;DHT22;53063;39.614;8.814;2023-02-24T16:57:10;16.30;81.30
66271;DHT22;53063;39.614;8.814;2023-02-24T16:59:36;16.30;81.50
66271;DHT22;53063;39.614;8.814;2023-02-24T17:02:02;16.30;81.40
66271;DHT22;53063;39.614;8.814;2023-02-24T17:04:28;16.40;81.20
66271;DHT22;53063;39.614;8.814;2023-02-24T17:06:57;16.40;80.60
66271;DHT22;53063;39.614;8.814;2023-02-24T17:09:22;16.40;80.60
66271;DHT22;53063;39.614;8.814;2023-02-24T17:11:48;16.30;80.70
66271;DHT22;53063;39.614;8.814;2023-02-24T17:14:16;16.30;81.10
66271;DHT22;53063;39.614;8.814;2023-02-24T17:16:43;16.30;81.10
66271;DHT22;53063;39.614;8.814;2023-02-24T17:19:09;16.30;81.30
66271;DHT22;53063;39.614;8.814;2023-02-24T17:21:39;16.30;81.30
66271;DHT22;53063;39.614;8.814;2023-02-24T17:24:06;16.30;81.30
66271;DHT22;53063;39.614;8.814;2023-02-24T17:26:32;16.20;81.10
66271;DHT22;53063;39.614;8.814;2023-02-24T17:28:58;16.10;81.40
66271;DHT22;53063;39.614;8.814;2023-02-24T17:31:24;16.10;81.60
66271;DHT22;53063;39.614;8.814;2023-02-24T17:33:52;15.90;82.50
66271;DHT22;53063;39.614;8.814;2023-02-24T17:36:18;16.00;82.50
66271;DHT22;53063;39.614;8.814;2023-02-24T17:38:44;16.00;82.60
66271;DHT22;53063;39.614;8.814;2023-02-24T17:41:11;15.80;83.30
66271;DHT22;53063;39.614;8.814;2023-02-24T17:43:37;15.60;84.40
66271;DHT22;53063;39.614;8.814;2023-02-24T17:46:03;15.70;84.70
66271;DHT22;53063;39.614;8.814;2023-02-24T17:48:29;15.60;85.00
66271;DHT22;53063;39.614;8.814;2023-02-24T17:50:55;15.50;85.40
66271;DHT22;53063;39.614;8.814;2023-02-24T17:53:21;15.50;85.60
66271;DHT22;53063;39.614;8.814;2023-02-24T17:55:48;15.40;85.90
66271;DHT22;53063;39.614;8.814;2023-02-24T17:58:14;15.20;86.40
66271;DHT22;53063;39.614;8.814;2023-02-24T18:00:40;15.20;86.50
66271;DHT22;53063;39.614;8.814;2023-02-24T18:03:06;15.10;86.70
66271;DHT22;53063;39.614;8.814;2023-02-24T18:05:32;15.10;86.90
66271;DHT22;53063;39.614;8.814;2023-02-24T18:07:58;15.00;87.20
66271;DHT22;53063;39.614;8.814;2023-02-24T18:10:25;15.00;87.60
66271;DHT22;53063;39.614;8.814;2023-02-24T18:12:51;15.00;87.80
66271;DHT22;53063;39.614;8.814;2023-02-24T18:15:17;15.00;88.00
66271;DHT22;53063;39.614;8.814;2023-02-24T18:17:44;15.00;88.30
66271;DHT22;53063;39.614;8.814;2023-02-24T18:20:11;14.90;88.60
66271;DHT22;53063;39.614;8.814;2023-02-24T18:22:37;14.90;88.90
66271;DHT22;53063;39.614;8.814;2023-02-24T18:25:03;14.90;88.80
66271;DHT22;53063;39.614;8.814;2023-02-24T18:27:29;14.90;88.70
66271;DHT22;53063;39.614;8.814;2023-02-24T18:29:55;14.90;88.20
66271;DHT22;53063;39.614;8.814;2023-02-24T18:32:21;14.80;87.70
66271;DHT22;53063;39.614;8.814;2023-02-24T18:34:47;14.80;87.50
66271;DHT22;53063;39.614;8.814;2023-02-24T18:37:13;14.80;87.40
66271;DHT22;53063;39.614;8.814;2023-02-24T18:39:39;14.70;87.50
66271;DHT22;53063;39.614;8.814;2023-02-24T18:42:05;14.70;87.70
66271;DHT22;53063;39.614;8.814;2023-02-24T18:44:31;14.70;87.90
66271;DHT22;53063;39.614;8.814;2023-02-24T18:46:57;14.70;88.00
66271;DHT22;53063;39.614;8.814;2023-02-24T18:49:23;14.60;88.00
66271;DHT22;53063;39.614;8.814;2023-02-24T18:51:49;14.60;88.00